createdAt,value
2018-01-20T00:00:05.366Z,1.2
2018-01-20T00:05:15.787Z,1.1
2018-01-20T00:10:07.593Z,1.1
2018-01-20T00:15:05.476Z,1
2018-01-20T00:20:23.047Z,1
2018-01-20T00:25:23.322Z,1
2018-01-20T00:30:05.167Z,0.9
2018-01-20T00:35:23.127Z,0.9
2018-01-20T00:40:02.964Z,0.9
2018-01-20T00:45:02.420Z,0.8
2018-01-20T00:50:25.506Z,0.9
2018-01-20T00:55:05.287Z,0.8
2018-01-20T01:00:07.697Z,0.8
2018-01-20T01:05:02.948Z,0.8
2018-01-20T01:10:28.036Z,0.8
2018-01-20T01:15:07.465Z,0.8
2018-01-20T01:20:18.151Z,0.8
2018-01-20T01:25:03.235Z,0.8
2018-01-20T01:30:12.692Z,0.9
2018-01-20T01:35:07.877Z,0.9
2018-01-20T01:40:05.249Z,0.9
2018-01-20T01:45:05.565Z,0.9
2018-01-20T01:50:05.438Z,0.9
2018-01-20T01:55:13.310Z,0.9
2018-01-20T02:00:02.601Z,0.9
2018-01-20T02:05:20.586Z,0.9
2018-01-20T02:10:10.888Z,0.9
2018-01-20T02:15:02.554Z,1
2018-01-20T02:25:03.140Z,1
2018-01-20T02:30:04.976Z,1.1
2018-01-20T02:35:07.745Z,1.1
2018-01-20T02:40:04.996Z,1
2018-01-20T02:45:05.399Z,1
2018-01-20T02:55:07.929Z,1.1
2018-01-20T03:00:02.553Z,1.1
2018-01-20T03:05:07.906Z,1.2
2018-01-20T03:10:10.643Z,1.2
2018-01-20T03:15:10.932Z,1.3
2018-01-20T03:20:08.391Z,1.3
2018-01-20T03:25:22.986Z,1.3
2018-01-20T03:30:05.867Z,1.3
2018-01-20T03:35:07.636Z,1.4
2018-01-20T03:40:17.625Z,1.4
2018-01-20T03:45:10.342Z,1.4
2018-01-20T03:50:05.208Z,1.4
2018-01-20T03:55:13.084Z,1.4
2018-01-20T04:00:03.371Z,1.4
2018-01-20T04:05:05.359Z,1.4
2018-01-20T04:10:03.179Z,1.4
2018-01-20T04:15:25.146Z,1.4
2018-01-20T04:20:05.082Z,1.3
2018-01-20T04:25:25.645Z,1.2
2018-01-20T04:30:23.177Z,1.1
2018-01-20T04:35:13.443Z,1.1
2018-01-20T04:40:05.839Z,1.2
2018-01-20T04:45:02.569Z,1.2
2018-01-20T04:50:07.913Z,1.3
2018-01-20T04:55:15.849Z,1.3
2018-01-20T05:00:13.410Z,1.4
2018-01-20T05:05:02.439Z,1.4
2018-01-20T05:10:08.332Z,1.5
2018-01-20T05:20:07.805Z,1.4
2018-01-20T05:25:25.835Z,1.5
2018-01-20T05:30:30.992Z,1.5
2018-01-20T05:35:33.632Z,1.5
2018-01-20T05:40:10.035Z,1.5
2018-01-20T05:45:35.521Z,1.5
2018-01-20T05:50:02.777Z,1.5
2018-01-20T05:55:33.458Z,1.5
2018-01-20T06:00:05.324Z,1.6
2018-01-20T06:05:05.613Z,1.6
2018-01-20T06:10:04.988Z,1.6
2018-01-20T06:15:10.291Z,1.5
2018-01-20T06:20:05.215Z,1.5
2018-01-20T06:25:20.659Z,1.5
2018-01-20T06:30:05.620Z,1.4
2018-01-20T06:35:03.279Z,1.4
2018-01-20T06:40:03.091Z,1.4
2018-01-20T06:45:04.927Z,1.3
2018-01-20T06:50:03.274Z,1.3
2018-01-20T06:55:05.070Z,1.4
2018-01-20T07:00:02.433Z,1.4
2018-01-20T07:05:05.230Z,1.4
2018-01-20T07:10:03.039Z,1.4
2018-01-20T07:15:10.806Z,1.5
2018-01-20T07:20:05.742Z,1.5
2018-01-20T07:25:05.121Z,1.5
2018-01-20T07:30:09.996Z,1.5
2018-01-20T07:35:02.771Z,1.5
2018-01-20T07:40:07.724Z,1.6
2018-01-20T07:45:18.049Z,1.6
2018-01-20T07:50:12.513Z,1.6
2018-01-20T07:55:25.406Z,1.7
2018-01-20T08:00:05.218Z,1.7
2018-01-20T08:05:05.506Z,1.7
2018-01-20T08:10:05.880Z,1.7
2018-01-20T08:15:17.757Z,1.7
2018-01-20T08:20:05.656Z,1.7
2018-01-20T08:25:10.014Z,1.7
2018-01-20T08:30:08.470Z,1.7
2018-01-20T08:35:02.607Z,1.7
2018-01-20T08:40:07.491Z,1.7
2018-01-20T08:45:30.521Z,1.7
2018-01-20T08:50:02.891Z,1.7
2018-01-20T08:55:08.194Z,1.6
2018-01-20T09:00:10.054Z,1.6
2018-01-20T09:05:05.459Z,1.7
2018-01-20T09:10:08.228Z,1.7
2018-01-20T09:15:22.718Z,1.8
2018-01-20T09:20:15.710Z,1.9
2018-01-20T09:25:07.414Z,2
2018-01-20T09:30:07.795Z,1.9
2018-01-20T09:35:03.009Z,1.9
2018-01-20T09:40:02.738Z,2
2018-01-20T09:45:08.084Z,2
2018-01-20T09:50:02.418Z,1.9
2018-01-20T09:55:07.779Z,1.9
2018-01-20T10:00:10.683Z,2
2018-01-20T10:05:20.087Z,2.1
2018-01-20T10:10:12.960Z,2.1
2018-01-20T10:15:05.717Z,2.2
2018-01-20T10:20:08.152Z,2.5
2018-01-20T10:25:04.951Z,2.6
2018-01-20T10:30:08.435Z,2.7
2018-01-20T10:35:07.704Z,2.8
2018-01-20T10:40:07.648Z,3
2018-01-20T10:45:02.721Z,3
2018-01-20T10:50:08.068Z,3.4
2018-01-20T10:55:05.876Z,3.7
2018-01-20T11:00:03.196Z,3.7
2018-01-20T11:05:04.980Z,4
2018-01-20T11:10:05.307Z,4.2
2018-01-20T11:15:05.568Z,4.3
2018-01-20T11:20:08.058Z,4.2
2018-01-20T11:25:13.371Z,4.1
2018-01-20T11:30:10.316Z,4.1
2018-01-20T11:35:05.537Z,4.1
2018-01-20T11:40:31.104Z,4.3
2018-01-20T11:45:09.989Z,4.3
2018-01-20T11:50:03.297Z,4.3
2018-01-20T11:55:17.820Z,4.2
2018-01-20T12:00:05.637Z,4.1
2018-01-20T12:05:02.442Z,4.1
2018-01-20T12:10:21.018Z,4.1
2018-01-20T12:15:05.139Z,4.1
2018-01-20T12:20:02.553Z,4.1
2018-01-20T12:25:13.014Z,4.1
2018-01-20T12:30:08.377Z,4
2018-01-20T12:35:05.179Z,4
2018-01-20T12:40:05.532Z,4
2018-01-20T12:45:03.288Z,4
2018-01-20T12:50:02.582Z,4.1
2018-01-20T12:55:13.063Z,4.2
2018-01-20T13:00:10.933Z,4.2
2018-01-20T13:05:02.614Z,4.2
2018-01-20T13:10:08.464Z,4.6
2018-01-20T13:15:10.434Z,4.8
2018-01-20T13:20:02.850Z,4.8
2018-01-20T13:25:03.109Z,4.8
2018-01-20T13:30:04.961Z,4.7
2018-01-20T13:35:17.911Z,4.5
2018-01-20T13:40:05.260Z,4.5
2018-01-20T13:45:05.518Z,4.4
2018-01-20T13:50:05.377Z,4.4
2018-01-20T13:55:08.208Z,4.4
2018-01-20T14:00:02.539Z,4.4
2018-01-20T14:05:10.407Z,4.4
2018-01-20T14:10:10.914Z,4.6
2018-01-20T14:15:10.126Z,4.5
2018-01-20T14:20:07.564Z,4.3
2018-01-20T14:25:35.685Z,4.2
2018-01-20T14:30:02.972Z,4.2
2018-01-20T14:35:08.327Z,4.1
2018-01-20T14:40:08.176Z,4
2018-01-20T14:45:10.957Z,4.1
2018-01-20T14:50:03.298Z,4.1
2018-01-20T14:55:02.590Z,4
2018-01-20T15:00:08.010Z,4.1
2018-01-20T15:05:03.241Z,4
2018-01-20T15:10:15.716Z,4.1
2018-01-20T15:15:02.398Z,0.9
2018-01-20T15:20:02.834Z,3.9
2018-01-20T15:25:13.220Z,3.5
2018-01-20T15:30:02.518Z,3.5
2018-01-20T15:35:02.821Z,3.3
2018-01-20T15:40:25.377Z,3.3
2018-01-20T15:45:02.718Z,3.3
2018-01-20T15:50:05.607Z,3.2
2018-01-20T15:55:07.571Z,3.2
2018-01-20T16:00:07.974Z,3.1
2018-01-20T16:05:18.498Z,3.2
2018-01-20T16:10:10.851Z,3.1
2018-01-20T16:15:02.572Z,3.1
2018-01-20T16:20:05.513Z,3.1
2018-01-20T16:25:20.966Z,3
2018-01-20T16:30:05.767Z,3
2018-01-20T16:35:07.577Z,2.9
2018-01-20T16:40:23.607Z,2.9
2018-01-20T16:45:05.141Z,2.9
2018-01-20T16:50:02.420Z,2.9
2018-01-20T16:55:15.316Z,2.9
2018-01-20T17:00:02.609Z,2.9
2018-01-20T17:05:02.948Z,2.9
2018-01-20T17:10:10.340Z,2.8
2018-01-20T17:15:18.182Z,2.7
2018-01-20T17:20:05.076Z,2.7
2018-01-20T17:25:05.369Z,2.7
2018-01-20T17:30:05.237Z,2.7
2018-01-20T17:35:05.529Z,2.6
2018-01-20T17:40:03.343Z,2.6
2018-01-20T17:45:17.919Z,2.5
2018-01-20T17:50:05.806Z,2.5
2018-01-20T17:55:02.600Z,2.5
2018-01-20T18:00:03.001Z,2.5
2018-01-20T18:05:03.157Z,2.5
2018-01-20T18:10:08.030Z,2.4
2018-01-20T18:15:15.836Z,2.4
2018-01-20T18:20:05.850Z,2.4
2018-01-20T18:25:17.747Z,2.3
2018-01-20T18:30:03.021Z,2.3
2018-01-20T18:35:02.409Z,2.2
2018-01-20T18:40:08.353Z,2
2018-01-20T18:45:02.530Z,2
2018-01-20T18:50:15.470Z,1.7
2018-01-20T18:55:03.118Z,1.8
2018-01-20T19:00:05.044Z,1.7
2018-01-20T19:05:07.883Z,1.6
2018-01-20T19:10:05.185Z,1.5
2018-01-20T19:15:07.989Z,1.4
2018-01-20T19:20:08.424Z,1.4
2018-01-20T19:25:15.240Z,1.3
2018-01-20T19:30:10.141Z,1.2
2018-01-20T19:35:07.930Z,1.1
2018-01-20T19:40:05.257Z,1.1
2018-01-20T19:45:02.977Z,1.1
2018-01-20T19:50:05.849Z,1
2018-01-20T19:55:10.114Z,1
2018-01-20T20:00:12.564Z,1
2018-01-20T20:05:10.220Z,0.9
2018-01-20T20:10:02.990Z,0.9
2018-01-20T20:15:08.309Z,0.8
2018-01-20T20:20:02.703Z,0.8
2018-01-20T20:25:02.946Z,0.8
2018-01-20T20:30:28.614Z,0.7
2018-01-20T20:35:02.913Z,0.7
2018-01-20T20:40:05.177Z,0.6
2018-01-20T20:45:07.955Z,0.6
2018-01-20T20:50:08.304Z,0.6
2018-01-20T20:55:10.112Z,0.5
2018-01-20T21:00:02.408Z,0.6
2018-01-20T21:05:02.673Z,0.5
2018-01-20T21:10:05.225Z,0.5
2018-01-20T21:15:05.454Z,0.4
2018-01-20T21:20:07.936Z,0.4
2018-01-20T21:25:03.179Z,0.4
2018-01-20T21:30:10.121Z,0
2018-01-20T21:35:12.914Z,0.3
2018-01-20T21:40:07.757Z,0.3
2018-01-20T21:45:05.428Z,0.4
2018-01-20T21:50:12.937Z,0.3
2018-01-20T21:55:05.555Z,0.3
2018-01-20T22:00:23.164Z,0.3
2018-01-20T22:05:18.310Z,0.3
2018-01-20T22:10:05.609Z,0.2
2018-01-20T22:15:03.319Z,0.2
2018-01-20T22:20:02.687Z,0.2
2018-01-20T22:25:05.454Z,0.2
2018-01-20T22:30:07.874Z,0.2
2018-01-20T22:35:10.643Z,0.3
2018-01-20T22:40:20.209Z,0.4
2018-01-20T22:45:05.137Z,0.4
2018-01-20T22:50:04.994Z,0.4
2018-01-20T22:55:07.825Z,0.3
2018-01-20T23:00:03.097Z,0.3
2018-01-20T23:05:03.380Z,0.3
2018-01-20T23:10:05.787Z,0.3
2018-01-20T23:15:17.671Z,0.3
2018-01-20T23:20:10.635Z,0.2
2018-01-20T23:25:07.449Z,0.3
2018-01-20T23:30:05.376Z,0.2
2018-01-20T23:35:02.996Z,0.2
2018-01-20T23:40:05.297Z,0.2
2018-01-20T23:45:05.548Z,0.2
2018-01-20T23:50:12.949Z,0.2
2018-01-20T23:55:03.037Z,0.2
